createdAt,value
2023-05-08T00:02:14.398Z,8.50
2023-05-08T00:04:42.681Z,3.05
2023-05-08T00:07:10.890Z,2.28
2023-05-08T00:09:39.352Z,2.53
2023-05-08T00:12:07.670Z,2.78
2023-05-08T00:14:36.208Z,2.85
2023-05-08T00:17:04.379Z,3.25
2023-05-08T00:19:33.953Z,3.83
2023-05-08T00:22:02.162Z,2.90
2023-05-08T00:24:30.346Z,2.58
2023-05-08T00:26:58.516Z,7.22
2023-05-08T00:29:26.821Z,3.40
2023-05-08T00:31:55.014Z,2.75
2023-05-08T00:34:23.277Z,4.53
2023-05-08T00:36:52.830Z,4.78
2023-05-08T00:39:21.013Z,3.70
2023-05-08T00:41:49.301Z,2.47
2023-05-08T00:44:17.657Z,3.40
2023-05-08T00:46:46.856Z,2.97
2023-05-08T00:49:17.096Z,2.92
2023-05-08T00:51:47.893Z,1.92
2023-05-08T00:54:17.817Z,4.18
2023-05-08T00:56:46.898Z,2.70
2023-05-08T00:59:16.868Z,4.65
2023-05-08T01:01:47.614Z,2.67
2023-05-08T01:04:16.086Z,5.03
2023-05-08T01:06:47.257Z,2.20
2023-05-08T01:09:16.779Z,2.50
2023-05-08T01:11:51.170Z,2.92
2023-05-08T01:14:22.625Z,3.30
2023-05-08T01:16:59.607Z,5.93
2023-05-08T01:19:59.504Z,2.85
2023-05-08T01:22:45.315Z,4.15
2023-05-08T01:25:47.925Z,2.50
2023-05-08T01:28:44.309Z,4.82
2023-05-08T01:31:25.033Z,2.88
2023-05-08T01:34:06.266Z,3.17
2023-05-08T01:36:40.837Z,3.70
2023-05-08T01:39:16.567Z,3.45
2023-05-08T01:41:51.524Z,3.55
2023-05-08T01:44:24.941Z,2.95
2023-05-08T01:46:54.398Z,4.15
2023-05-08T01:49:27.783Z,2.95
2023-05-08T01:52:02.114Z,3.25
2023-05-08T01:54:43.938Z,3.65
2023-05-08T01:57:13.523Z,2.13
2023-05-08T01:59:43.972Z,4.18
2023-05-08T02:02:13.195Z,2.60
2023-05-08T02:04:45.787Z,3.70
2023-05-08T02:07:14.179Z,3.53
2023-05-08T02:09:44.007Z,2.70
2023-05-08T02:12:14.549Z,3.35
2023-05-08T02:14:44.731Z,3.97
2023-05-08T02:17:16.644Z,3.85
2023-05-08T02:19:48.002Z,1.77
2023-05-08T02:22:19.352Z,2.97
2023-05-08T02:24:48.118Z,2.60
2023-05-08T02:27:17.050Z,3.08
2023-05-08T02:29:45.468Z,2.47
2023-05-08T02:32:18.394Z,4.40
2023-05-08T02:35:01.985Z,4.05
2023-05-08T02:37:32.392Z,1.98
2023-05-08T02:40:00.966Z,3.33
2023-05-08T02:42:29.201Z,2.47
2023-05-08T02:44:57.471Z,2.90
2023-05-08T02:47:30.863Z,5.22
2023-05-08T02:50:09.568Z,6.15
2023-05-08T02:52:44.231Z,2.92
2023-05-08T02:55:23.089Z,3.42
2023-05-08T02:58:04.004Z,2.38
2023-05-08T03:00:36.335Z,3.30
2023-05-08T03:03:12.982Z,2.33
2023-05-08T03:05:48.649Z,2.92
2023-05-08T03:08:19.624Z,4.07
2023-05-08T03:10:52.291Z,4.25
2023-05-08T03:13:21.931Z,2.42
2023-05-08T03:15:56.178Z,2.90
2023-05-08T03:18:31.516Z,3.25
2023-05-08T03:21:02.280Z,1.55
2023-05-08T03:23:34.170Z,2.70
2023-05-08T03:26:04.089Z,2.63
2023-05-08T03:28:33.668Z,2.78
2023-05-08T03:31:02.817Z,4.25
2023-05-08T03:33:31.755Z,3.17
2023-05-08T03:36:01.478Z,2.70
2023-05-08T03:38:29.967Z,1.92
2023-05-08T03:41:00.158Z,4.75
2023-05-08T03:43:30.620Z,2.90
2023-05-08T03:46:00.049Z,3.65
2023-05-08T03:48:29.782Z,2.47
2023-05-08T03:50:59.560Z,4.85
2023-05-08T03:53:30.328Z,3.63
2023-05-08T03:55:59.467Z,2.03
2023-05-08T03:58:33.798Z,4.15
2023-05-08T04:01:06.730Z,2.53
2023-05-08T04:03:50.943Z,2.28
2023-05-08T04:06:30.762Z,3.78
2023-05-08T04:09:09.297Z,2.95
2023-05-08T04:11:45.059Z,2.15
2023-05-08T04:14:20.575Z,3.85
2023-05-08T04:16:52.119Z,2.55
2023-05-08T04:19:25.044Z,2.67
2023-05-08T04:21:58.395Z,3.40
2023-05-08T04:24:30.675Z,2.25
2023-05-08T04:26:59.666Z,4.80
2023-05-08T04:29:28.040Z,3.22
2023-05-08T04:31:57.437Z,2.90
2023-05-08T04:34:26.047Z,4.82
2023-05-08T04:36:58.159Z,4.32
2023-05-08T04:39:28.089Z,3.38
2023-05-08T04:42:02.516Z,2.90
2023-05-08T04:44:34.438Z,3.10
2023-05-08T04:47:02.740Z,2.58
2023-05-08T04:49:31.250Z,4.07
2023-05-08T04:51:59.472Z,3.22
2023-05-08T04:54:28.996Z,2.00
2023-05-08T04:56:57.174Z,2.42
2023-05-08T04:59:25.830Z,2.65
2023-05-08T05:01:54.558Z,2.28
2023-05-08T05:04:24.898Z,4.15
2023-05-08T05:06:54.753Z,2.72
2023-05-08T05:09:23.047Z,3.38
2023-05-08T05:11:52.611Z,3.33
2023-05-08T05:14:20.931Z,2.42
2023-05-08T05:16:49.229Z,2.42
2023-05-08T05:19:17.535Z,4.32
2023-05-08T05:21:47.202Z,5.95
2023-05-08T05:24:15.576Z,2.47
2023-05-08T05:26:46.597Z,2.10
2023-05-08T05:29:16.195Z,3.42
2023-05-08T05:31:44.775Z,3.10
2023-05-08T05:34:13.264Z,5.10
2023-05-08T05:36:45.887Z,3.28
2023-05-08T05:39:15.006Z,3.15
2023-05-08T05:41:44.238Z,2.63
2023-05-08T05:44:14.902Z,3.83
2023-05-08T05:46:44.533Z,2.95
2023-05-08T05:49:13.550Z,2.33
2023-05-08T05:51:42.142Z,2.03
2023-05-08T05:54:10.540Z,2.58
2023-05-08T05:56:39.117Z,2.05
2023-05-08T05:59:07.333Z,1.92
2023-05-08T06:01:37.202Z,2.88
2023-05-08T06:04:05.772Z,5.30
2023-05-08T06:06:35.009Z,2.40
2023-05-08T06:09:04.334Z,3.67
2023-05-08T06:11:32.713Z,3.03
2023-05-08T06:14:00.904Z,3.97
2023-05-08T06:16:30.680Z,2.88
2023-05-08T06:19:00.289Z,3.03
2023-05-08T06:21:28.631Z,4.13
2023-05-08T06:23:56.789Z,4.28
2023-05-08T06:26:24.927Z,3.38
2023-05-08T06:28:53.105Z,4.75
2023-05-08T06:31:21.297Z,1.83
2023-05-08T06:33:49.506Z,6.40
2023-05-08T06:36:19.114Z,3.80
2023-05-08T06:38:47.308Z,2.47
2023-05-08T06:41:15.958Z,5.05
2023-05-08T06:43:44.094Z,3.65
2023-05-08T06:46:12.843Z,2.15
2023-05-08T06:48:41.668Z,4.15
2023-05-08T06:51:09.816Z,5.30
2023-05-08T06:53:39.468Z,2.90
2023-05-08T06:56:26.496Z,3.69
2023-05-08T06:59:04.987Z,3.80
2023-05-08T07:01:37.291Z,2.72
2023-05-08T07:04:06.026Z,3.92
2023-05-08T07:06:34.474Z,2.75
2023-05-08T07:09:03.995Z,3.17
2023-05-08T07:11:32.367Z,2.42
2023-05-08T07:14:00.497Z,2.28
2023-05-08T07:16:28.702Z,2.05
2023-05-08T07:18:56.863Z,2.53
2023-05-08T07:21:25.079Z,1.77
2023-05-08T07:23:53.825Z,1.92
2023-05-08T07:26:23.465Z,2.03
2023-05-08T07:28:54.117Z,3.33
2023-05-08T07:31:22.615Z,6.22
2023-05-08T07:33:50.873Z,1.58
2023-05-08T07:36:19.085Z,2.10
2023-05-08T07:38:47.290Z,2.40
2023-05-08T07:41:15.450Z,2.95
2023-05-08T07:43:45.552Z,2.72
2023-05-08T07:46:18.464Z,3.72
2023-05-08T07:48:46.719Z,1.52
2023-05-08T07:51:15.035Z,1.67
2023-05-08T07:53:43.242Z,2.15
2023-05-08T07:56:12.315Z,1.98
2023-05-08T07:58:42.534Z,7.25
2023-05-08T08:01:12.092Z,1.88
2023-05-08T08:03:41.020Z,3.13
2023-05-08T08:06:09.217Z,1.75
2023-05-08T08:08:37.390Z,2.65
2023-05-08T08:11:05.630Z,2.28
2023-05-08T08:13:34.199Z,3.70
2023-05-08T08:16:04.102Z,2.38
2023-05-08T08:18:35.943Z,2.63
2023-05-08T08:21:07.458Z,3.08
2023-05-08T08:23:35.780Z,1.55
2023-05-08T08:26:04.028Z,3.25
2023-05-08T08:28:32.270Z,3.78
2023-05-08T08:31:00.902Z,2.10
2023-05-08T08:33:29.586Z,3.63
2023-05-08T08:35:59.554Z,4.28
2023-05-08T08:38:27.759Z,2.15
2023-05-08T08:40:56.077Z,1.63
2023-05-08T08:43:24.269Z,2.38
2023-05-08T08:45:54.414Z,3.05
2023-05-08T08:48:26.206Z,2.60
2023-05-08T08:50:59.935Z,2.83
2023-05-08T08:53:36.200Z,2.53
2023-05-08T08:56:09.788Z,2.10
2023-05-08T08:58:43.412Z,1.95
2023-05-08T09:01:17.125Z,8.20
2023-05-08T09:03:46.780Z,2.35
2023-05-08T09:06:16.551Z,1.90
2023-05-08T09:08:46.469Z,1.80
2023-05-08T09:11:14.915Z,1.70
2023-05-08T09:13:45.029Z,1.40
2023-05-08T09:16:13.288Z,1.25
2023-05-08T09:18:43.785Z,2.95
2023-05-08T09:21:12.279Z,2.42
2023-05-08T09:23:57.601Z,1.98
2023-05-08T09:26:31.857Z,1.45
2023-05-08T09:29:10.590Z,3.47
2023-05-08T09:31:40.229Z,1.83
2023-05-08T09:34:09.397Z,1.80
2023-05-08T09:36:40.017Z,3.17
2023-05-08T09:39:13.809Z,3.55
2023-05-08T09:41:58.703Z,1.88
2023-05-08T09:44:26.895Z,2.10
2023-05-08T09:47:11.204Z,2.35
2023-05-08T09:49:40.620Z,4.22
2023-05-08T09:52:08.990Z,2.25
2023-05-08T09:54:38.813Z,1.80
2023-05-08T09:57:13.968Z,1.40
2023-05-08T09:59:45.252Z,1.85
2023-05-08T10:02:16.267Z,2.00
2023-05-08T10:04:47.170Z,2.03
2023-05-08T10:07:15.356Z,3.22
2023-05-08T10:10:00.271Z,4.50
2023-05-08T10:12:29.266Z,4.93
2023-05-08T10:14:57.960Z,3.75
2023-05-08T10:17:29.062Z,3.70
2023-05-08T10:20:03.909Z,4.05
2023-05-08T10:22:35.312Z,2.15
2023-05-08T10:25:08.821Z,1.80
2023-05-08T10:27:52.803Z,2.63
2023-05-08T10:30:25.884Z,2.45
2023-05-08T10:32:55.693Z,2.03
2023-05-08T10:35:24.284Z,3.80
2023-05-08T10:37:54.856Z,2.20
2023-05-08T10:40:24.870Z,2.08
2023-05-08T10:42:53.224Z,1.92
2023-05-08T10:45:21.592Z,1.77
2023-05-08T10:47:59.870Z,2.35
2023-05-08T10:50:43.476Z,2.30
2023-05-08T10:53:18.514Z,1.48
2023-05-08T10:55:52.054Z,2.75
2023-05-08T10:58:31.576Z,3.97
2023-05-08T11:01:16.329Z,1.48
2023-05-08T11:03:55.575Z,1.38
2023-05-08T11:06:44.402Z,2.00
2023-05-08T11:09:21.062Z,2.15
2023-05-08T11:12:03.417Z,1.70
2023-05-08T11:14:32.696Z,1.77
2023-05-08T11:17:08.407Z,3.28
2023-05-08T11:19:37.839Z,2.60
2023-05-08T11:22:23.625Z,3.28
2023-05-08T11:24:55.523Z,2.58
2023-05-08T11:27:38.906Z,2.13
2023-05-08T11:30:28.259Z,3.63
2023-05-08T11:33:13.337Z,1.60
2023-05-08T11:35:49.978Z,2.80
2023-05-08T11:38:20.310Z,2.55
2023-05-08T11:40:58.095Z,1.20
2023-05-08T11:43:55.281Z,1.38
2023-05-08T11:46:23.555Z,3.70
2023-05-08T11:49:01.241Z,1.38
2023-05-08T11:51:32.619Z,1.33
2023-05-08T11:54:01.490Z,1.50
2023-05-08T11:56:29.799Z,2.58
2023-05-08T11:59:06.781Z,1.45
2023-05-08T12:01:35.195Z,1.63
2023-05-08T12:04:08.220Z,2.13
2023-05-08T12:06:38.837Z,1.80
2023-05-08T12:09:12.690Z,1.52
2023-05-08T12:11:43.624Z,2.13
2023-05-08T12:14:13.951Z,1.10
2023-05-08T12:16:42.424Z,3.40
2023-05-08T12:19:11.656Z,1.40
2023-05-08T12:21:39.893Z,3.20
2023-05-08T12:24:11.094Z,1.33
2023-05-08T12:26:39.994Z,1.95
2023-05-08T12:29:08.850Z,1.98
2023-05-08T12:31:39.315Z,1.77
2023-05-08T12:34:07.683Z,5.07
2023-05-08T12:36:36.556Z,1.17
2023-05-08T12:39:14.415Z,1.75
2023-05-08T12:41:50.952Z,1.33
2023-05-08T12:44:20.771Z,1.50
2023-05-08T12:46:51.964Z,1.52
2023-05-08T12:49:30.455Z,1.77
2023-05-08T12:52:03.248Z,2.03
2023-05-08T12:54:39.221Z,1.48
2023-05-08T12:57:12.816Z,3.15
2023-05-08T12:59:41.808Z,2.45
2023-05-08T13:02:19.303Z,4.07
2023-05-08T13:04:47.696Z,2.00
2023-05-08T13:07:16.260Z,1.60
2023-05-08T13:09:57.996Z,2.63
2023-05-08T13:12:26.204Z,1.77
2023-05-08T13:14:54.415Z,1.98
2023-05-08T13:17:26.961Z,4.00
2023-05-08T13:19:55.265Z,6.97
2023-05-08T13:22:26.594Z,4.43
2023-05-08T13:24:54.883Z,2.22
2023-05-08T13:27:23.264Z,2.13
2023-05-08T13:29:51.404Z,2.72
2023-05-08T13:32:19.593Z,3.70
2023-05-08T13:34:51.019Z,4.32
2023-05-08T13:37:20.426Z,1.38
2023-05-08T13:39:48.562Z,1.85
2023-05-08T13:42:16.911Z,1.30
2023-05-08T13:44:45.028Z,2.08
2023-05-08T13:47:13.320Z,1.65
2023-05-08T13:49:41.481Z,3.20
2023-05-08T13:52:11.752Z,1.45
2023-05-08T13:54:40.049Z,4.88
2023-05-08T13:57:08.584Z,1.77
2023-05-08T13:59:36.915Z,1.30
2023-05-08T14:02:05.126Z,2.33
2023-05-08T14:04:33.413Z,1.98
2023-05-08T14:07:01.812Z,1.27
2023-05-08T14:09:31.378Z,1.50
2023-05-08T14:11:59.655Z,1.20
2023-05-08T14:14:28.811Z,1.27
2023-05-08T14:16:57.074Z,1.20
2023-05-08T14:19:25.211Z,3.58
2023-05-08T14:21:53.421Z,3.63
2023-05-08T14:24:21.794Z,2.13
2023-05-08T14:26:51.335Z,1.65
2023-05-08T14:29:19.822Z,6.28
2023-05-08T14:31:48.076Z,2.03
2023-05-08T14:34:16.282Z,1.50
2023-05-08T14:36:46.457Z,0.90
2023-05-08T14:39:14.650Z,2.03
2023-05-08T14:42:05.215Z,1.38
2023-05-08T14:44:35.459Z,2.15
2023-05-08T14:47:03.711Z,5.00
2023-05-08T14:49:38.010Z,3.22
2023-05-08T14:52:07.321Z,4.95
2023-05-08T14:54:38.796Z,1.70
2023-05-08T14:57:07.156Z,1.70
2023-05-08T14:59:36.695Z,1.48
2023-05-08T15:02:05.086Z,1.70
2023-05-08T15:04:33.355Z,2.20
2023-05-08T15:07:01.500Z,3.55
2023-05-08T15:09:36.425Z,3.42
2023-05-08T15:12:04.879Z,1.20
2023-05-08T15:14:33.026Z,3.15
2023-05-08T15:17:02.563Z,4.18
2023-05-08T15:19:30.696Z,1.50
2023-05-08T15:21:58.849Z,1.65
2023-05-08T15:24:26.980Z,1.40
2023-05-08T15:26:55.097Z,2.63
2023-05-08T15:29:23.302Z,4.20
2023-05-08T15:31:51.704Z,1.83
2023-05-08T15:34:21.345Z,1.80
2023-05-08T15:36:49.590Z,2.10
2023-05-08T15:39:18.577Z,2.35
2023-05-08T15:41:47.218Z,2.78
2023-05-08T15:44:15.768Z,1.65
2023-05-08T15:46:46.754Z,2.15
2023-05-08T15:49:15.138Z,1.85
2023-05-08T15:51:44.663Z,1.48
2023-05-08T15:54:12.842Z,1.88
2023-05-08T15:56:41.332Z,1.45
2023-05-08T15:59:09.653Z,2.00
2023-05-08T16:01:38.633Z,2.97
2023-05-08T16:04:06.816Z,3.72
2023-05-08T16:06:37.822Z,1.52
2023-05-08T16:09:07.602Z,3.05
2023-05-08T16:11:35.787Z,1.85
2023-05-08T16:14:06.968Z,2.38
2023-05-08T16:16:35.249Z,2.97
2023-05-08T16:19:03.512Z,5.50
2023-05-08T16:21:31.791Z,3.40
2023-05-08T16:24:00.270Z,2.20
2023-05-08T16:26:29.810Z,1.50
2023-05-08T16:28:57.962Z,1.42
2023-05-08T16:31:26.259Z,1.50
2023-05-08T16:33:54.506Z,1.17
2023-05-08T16:36:22.725Z,2.03
2023-05-08T16:38:50.867Z,1.42
2023-05-08T16:41:19.032Z,2.58
2023-05-08T16:43:48.529Z,3.28
2023-05-08T16:46:20.811Z,2.30
2023-05-08T16:48:55.018Z,3.85
2023-05-08T16:51:23.559Z,3.35
2023-05-08T16:53:51.716Z,1.38
2023-05-08T16:56:20.733Z,2.15
2023-05-08T16:58:50.286Z,2.08
2023-05-08T17:01:21.418Z,1.90
2023-05-08T17:03:49.793Z,8.27
2023-05-08T17:06:17.967Z,2.72
2023-05-08T17:08:46.826Z,4.93
2023-05-08T17:11:14.959Z,2.33
2023-05-08T17:13:43.263Z,1.98
2023-05-08T17:16:13.536Z,3.05
2023-05-08T17:18:43.890Z,2.42
2023-05-08T17:21:12.079Z,4.30
2023-05-08T17:23:40.279Z,2.33
2023-05-08T17:26:08.860Z,4.28
2023-05-08T17:28:37.139Z,4.32
2023-05-08T17:31:05.303Z,2.33
2023-05-08T17:33:34.830Z,4.20
2023-05-08T17:36:03.218Z,1.75
2023-05-08T17:38:35.198Z,2.45
2023-05-08T17:41:05.187Z,2.75
2023-05-08T17:43:35.249Z,4.38
2023-05-08T17:46:05.381Z,1.58
2023-05-08T17:48:35.622Z,3.63
2023-05-08T17:51:04.261Z,2.70
2023-05-08T17:53:33.077Z,2.63
2023-05-08T17:56:06.995Z,3.55
2023-05-08T17:58:35.616Z,4.43
2023-05-08T18:01:03.859Z,3.88
2023-05-08T18:03:32.056Z,3.25
2023-05-08T18:06:01.626Z,5.32
2023-05-08T18:08:29.766Z,5.57
2023-05-08T18:10:57.941Z,4.57
2023-05-08T18:13:26.346Z,11.80
2023-05-08T18:15:54.706Z,17.13
2023-05-08T18:18:24.857Z,4.40
2023-05-08T18:20:53.546Z,6.78
2023-05-08T18:23:23.113Z,3.28
2023-05-08T18:25:51.286Z,5.90
2023-05-08T18:28:19.418Z,5.95
2023-05-08T18:30:48.377Z,6.38
2023-05-08T18:33:18.425Z,4.78
2023-05-08T18:35:46.701Z,12.55
2023-05-08T18:38:17.491Z,10.13
2023-05-08T18:40:47.260Z,16.65
2023-05-08T18:43:15.914Z,15.40
2023-05-08T18:45:47.095Z,15.55
2023-05-08T18:48:16.857Z,16.92
2023-05-08T18:50:47.847Z,15.45
2023-05-08T18:53:15.982Z,13.07
2023-05-08T18:55:44.162Z,8.20
2023-05-08T18:58:13.954Z,8.35
2023-05-08T19:00:42.666Z,9.57
2023-05-08T19:03:10.913Z,10.18
2023-05-08T19:05:39.262Z,9.13
2023-05-08T19:08:07.528Z,10.13
2023-05-08T19:10:35.757Z,8.88
2023-05-08T19:13:04.057Z,6.22
2023-05-08T19:15:33.615Z,8.90
2023-05-08T19:18:05.542Z,6.15
2023-05-08T19:20:34.706Z,5.78
2023-05-08T19:23:03.211Z,8.57
2023-05-08T19:25:31.403Z,4.85
2023-05-08T19:27:59.592Z,4.70
2023-05-08T19:30:27.796Z,5.82
2023-05-08T19:32:57.305Z,5.90
2023-05-08T19:35:25.620Z,5.07
2023-05-08T19:37:53.764Z,6.30
2023-05-08T19:40:21.968Z,5.82
2023-05-08T19:42:50.450Z,7.25
2023-05-08T19:45:18.606Z,6.93
2023-05-08T19:47:48.917Z,5.00
2023-05-08T19:50:18.853Z,4.65
2023-05-08T19:52:48.510Z,5.50
2023-05-08T19:55:17.463Z,4.82
2023-05-08T19:57:45.801Z,6.10
2023-05-08T20:00:14.712Z,5.32
2023-05-08T20:02:44.319Z,5.65
2023-05-08T20:07:46.045Z,8.75
2023-05-08T20:10:14.373Z,7.88
2023-05-08T20:12:42.716Z,7.35
2023-05-08T20:15:11.820Z,7.60
2023-05-08T20:17:40.167Z,9.57
2023-05-08T20:20:09.782Z,7.00
2023-05-08T20:22:37.996Z,6.97
2023-05-08T20:25:08.213Z,6.50
2023-05-08T20:27:39.433Z,10.07
2023-05-08T20:30:08.756Z,5.97
2023-05-08T20:32:36.961Z,7.60
2023-05-08T20:35:05.529Z,8.75
2023-05-08T20:37:33.656Z,4.05
2023-05-08T20:40:04.704Z,7.07
2023-05-08T20:42:34.443Z,5.38
2023-05-08T20:45:02.578Z,5.28
2023-05-08T20:47:30.795Z,8.48
2023-05-08T20:49:58.934Z,5.03
2023-05-08T20:52:27.065Z,5.68
2023-05-08T20:54:57.340Z,7.25
2023-05-08T20:57:25.784Z,4.50
2023-05-08T20:59:55.308Z,8.85
2023-05-08T21:02:23.686Z,7.20
2023-05-08T21:04:52.694Z,6.57
2023-05-08T21:07:20.956Z,6.00
2023-05-08T21:09:49.079Z,5.35
2023-05-08T21:12:17.287Z,4.35
2023-05-08T21:14:45.473Z,5.95
2023-05-08T21:17:17.569Z,5.90
2023-05-08T21:19:45.906Z,4.10
2023-05-08T21:22:14.041Z,5.10
2023-05-08T21:24:46.994Z,4.47
2023-05-08T21:27:15.414Z,4.63
2023-05-08T21:29:43.524Z,5.13
2023-05-08T21:32:11.662Z,4.75
2023-05-08T21:34:41.605Z,5.82
2023-05-08T21:37:10.940Z,4.82
2023-05-08T21:39:39.273Z,6.45
2023-05-08T21:42:07.494Z,6.28
2023-05-08T21:44:35.648Z,8.02
2023-05-08T21:47:03.805Z,3.83
2023-05-08T21:49:31.918Z,5.15
2023-05-08T21:52:01.405Z,6.00
2023-05-08T21:54:29.551Z,5.65
2023-05-08T21:56:57.740Z,9.10
2023-05-08T21:59:26.162Z,5.05
2023-05-08T22:01:54.745Z,6.35
2023-05-08T22:04:24.197Z,6.30
2023-05-08T22:06:53.694Z,6.82
2023-05-08T22:09:23.197Z,9.80
2023-05-08T22:11:51.581Z,5.63
2023-05-08T22:14:19.830Z,8.85
2023-05-08T22:16:48.233Z,6.65
2023-05-08T22:19:16.361Z,6.15
2023-05-08T22:21:44.617Z,7.82
2023-05-08T22:24:14.925Z,10.30
2023-05-08T22:26:46.710Z,7.13
2023-05-08T22:29:16.497Z,9.02
2023-05-08T22:31:44.683Z,6.57
2023-05-08T22:34:12.863Z,7.68
2023-05-08T22:36:41.460Z,9.02
2023-05-08T22:39:11.628Z,9.27
2023-05-08T22:41:40.052Z,5.75
2023-05-08T22:44:09.614Z,6.53
2023-05-08T22:46:38.788Z,6.65
2023-05-08T22:49:07.048Z,6.18
2023-05-08T22:51:36.096Z,7.32
2023-05-08T22:54:06.430Z,6.03
2023-05-08T22:56:38.074Z,5.07
2023-05-08T22:59:06.758Z,6.00
2023-05-08T23:01:36.355Z,5.13
2023-05-08T23:04:04.598Z,5.05
2023-05-08T23:06:33.499Z,7.10
2023-05-08T23:09:01.961Z,5.57
2023-05-08T23:11:30.644Z,5.57
2023-05-08T23:13:58.842Z,8.05
2023-05-08T23:16:27.095Z,7.15
2023-05-08T23:18:56.704Z,7.07
2023-05-08T23:21:24.897Z,7.68
2023-05-08T23:23:55.727Z,7.28
2023-05-08T23:26:23.863Z,6.55
2023-05-08T23:28:52.328Z,6.97
2023-05-08T23:31:20.490Z,6.80
2023-05-08T23:33:48.705Z,7.43
2023-05-08T23:36:18.222Z,6.43
2023-05-08T23:38:46.440Z,6.10
2023-05-08T23:41:14.813Z,7.88
2023-05-08T23:43:42.980Z,8.20
2023-05-08T23:46:11.588Z,6.68
2023-05-08T23:48:40.445Z,7.63
2023-05-08T23:51:08.897Z,6.35
2023-05-08T23:53:38.403Z,6.63
2023-05-08T23:56:07.258Z,6.15
2023-05-08T23:58:35.585Z,7.40
